createdAt,value
2023-04-26T00:01:30.883Z,7.38
2023-04-26T00:06:37.355Z,7.33
2023-04-26T00:11:42.775Z,7.24
2023-04-26T00:16:48.710Z,7.23
2023-04-26T00:21:54.150Z,7.18
2023-04-26T00:27:00.815Z,7.07
2023-04-26T00:32:07.409Z,7.01
2023-04-26T00:37:13.021Z,6.98
2023-04-26T00:42:19.536Z,6.94
2023-04-26T00:47:26.191Z,6.78
2023-04-26T00:52:32.221Z,6.65
2023-04-26T00:57:41.714Z,6.54
2023-04-26T01:02:51.292Z,6.46
2023-04-26T01:07:57.878Z,6.36
2023-04-26T01:13:03.818Z,6.31
2023-04-26T01:18:09.878Z,6.30
2023-04-26T01:23:15.379Z,6.31
2023-04-26T01:28:21.024Z,6.28
2023-04-26T01:33:26.489Z,6.23
2023-04-26T01:38:31.917Z,6.19
2023-04-26T01:43:37.560Z,6.18
2023-04-26T01:48:43.195Z,6.20
2023-04-26T01:53:48.633Z,6.21
2023-04-26T01:58:56.325Z,6.25
2023-04-26T02:04:01.980Z,6.27
2023-04-26T02:09:09.184Z,6.23
2023-04-26T02:14:18.654Z,6.18
2023-04-26T02:19:24.032Z,6.18
2023-04-26T02:24:30.980Z,6.14
2023-04-26T02:29:44.383Z,6.04
2023-04-26T02:34:50.873Z,5.88
2023-04-26T02:39:56.396Z,5.77
2023-04-26T02:45:02.123Z,5.78
2023-04-26T02:50:09.729Z,5.85
2023-04-26T02:55:15.322Z,5.90
2023-04-26T03:00:22.201Z,5.95
2023-04-26T03:05:27.940Z,6.02
2023-04-26T03:10:33.806Z,6.12
2023-04-26T03:15:39.476Z,6.20
2023-04-26T03:20:45.595Z,6.25
2023-04-26T03:25:51.724Z,6.31
2023-04-26T03:30:57.202Z,6.38
2023-04-26T03:36:03.266Z,6.42
2023-04-26T03:41:09.863Z,6.43
2023-04-26T03:46:16.326Z,6.41
2023-04-26T03:51:28.281Z,6.42
2023-04-26T03:56:33.786Z,6.41
2023-04-26T04:01:39.997Z,6.35
2023-04-26T04:06:46.193Z,6.23
2023-04-26T04:11:52.447Z,6.21
2023-04-26T04:16:59.373Z,6.23
2023-04-26T04:22:05.348Z,6.24
2023-04-26T04:27:11.643Z,6.39
2023-04-26T04:32:18.967Z,7.90
2023-04-26T04:37:25.496Z,10.03
2023-04-26T04:42:32.330Z,11.73
2023-04-26T04:47:40.064Z,13.49
2023-04-26T04:52:45.697Z,14.82
2023-04-26T04:57:51.320Z,15.46
2023-04-26T05:02:57.709Z,15.79
2023-04-26T05:08:04.016Z,15.68
2023-04-26T05:13:09.506Z,16.17
2023-04-26T05:18:15.421Z,17.21
2023-04-26T05:23:21.622Z,18.51
2023-04-26T05:28:27.065Z,19.84
2023-04-26T05:33:46.373Z,20.48
2023-04-26T05:38:57.999Z,20.71
2023-04-26T05:44:03.446Z,18.42
2023-04-26T05:49:09.356Z,15.87
2023-04-26T05:54:14.796Z,14.23
2023-04-26T05:59:21.201Z,13.25
2023-04-26T06:04:27.006Z,11.91
2023-04-26T06:09:43.398Z,11.21
2023-04-26T06:14:49.148Z,11.21
2023-04-26T06:19:58.128Z,11.40
2023-04-26T06:25:04.752Z,11.80
2023-04-26T06:30:13.439Z,14.94
2023-04-26T06:35:24.760Z,18.98
2023-04-26T06:40:30.900Z,21.49
2023-04-26T06:45:36.957Z,23.40
2023-04-26T06:50:42.745Z,24.14
2023-04-26T06:55:48.304Z,24.82
2023-04-26T07:00:53.835Z,24.80
2023-04-26T07:05:59.347Z,24.88
2023-04-26T07:11:11.635Z,25.04
2023-04-26T07:16:17.088Z,25.51
2023-04-26T07:21:22.890Z,26.56
2023-04-26T07:26:28.640Z,26.98
2023-04-26T07:31:34.077Z,26.88
2023-04-26T07:36:39.502Z,25.12
2023-04-26T07:41:45.099Z,24.67
2023-04-26T07:46:51.233Z,25.26
2023-04-26T07:51:58.279Z,26.09
2023-04-26T07:57:03.698Z,26.64
2023-04-26T08:02:09.242Z,23.99
2023-04-26T08:07:15.451Z,22.83
2023-04-26T08:12:21.108Z,24.65
2023-04-26T08:17:26.886Z,25.43
2023-04-26T08:22:32.328Z,23.87
2023-04-26T08:27:37.961Z,23.93
2023-04-26T08:32:43.592Z,22.70
2023-04-26T08:37:49.087Z,19.69
2023-04-26T08:42:54.687Z,17.11
2023-04-26T08:48:04.962Z,15.46
2023-04-26T08:53:14.031Z,14.56
2023-04-26T08:58:21.533Z,14.20
2023-04-26T09:03:27.370Z,16.82
2023-04-26T09:08:35.562Z,19.67
2023-04-26T09:13:40.928Z,18.73
2023-04-26T09:18:57.568Z,16.44
2023-04-26T09:24:05.610Z,14.64
2023-04-26T09:29:16.226Z,13.25
2023-04-26T09:34:21.821Z,12.15
2023-04-26T09:39:37.544Z,11.62
2023-04-26T09:44:43.335Z,11.20
2023-04-26T09:49:51.418Z,10.97
2023-04-26T09:54:57.148Z,10.92
2023-04-26T10:00:12.398Z,11.21
2023-04-26T10:05:18.666Z,11.61
2023-04-26T10:10:24.074Z,11.66
2023-04-26T10:15:29.984Z,11.60
2023-04-26T10:20:39.565Z,11.41
2023-04-26T10:25:45.009Z,11.10
2023-04-26T10:30:57.721Z,11.05
2023-04-26T10:36:10.353Z,11.38
2023-04-26T10:41:31.079Z,12.31
2023-04-26T10:46:38.992Z,12.78
2023-04-26T10:52:13.557Z,12.55
2023-04-26T10:57:19.707Z,12.04
2023-04-26T11:02:57.982Z,11.92
2023-04-26T11:08:10.846Z,12.20
2023-04-26T11:13:17.047Z,12.35
2023-04-26T11:18:22.753Z,12.23
2023-04-26T11:23:30.188Z,11.95
2023-04-26T11:28:37.435Z,12.41
2023-04-26T11:33:43.988Z,13.31
2023-04-26T11:38:49.641Z,13.25
2023-04-26T11:43:55.430Z,12.71
2023-04-26T11:49:01.437Z,12.94
2023-04-26T11:54:07.102Z,12.92
2023-04-26T11:59:12.562Z,12.30
2023-04-26T12:04:18.162Z,11.54
2023-04-26T12:09:29.616Z,11.17
2023-04-26T12:14:36.110Z,11.02
2023-04-26T12:19:42.027Z,10.91
2023-04-26T12:24:48.371Z,10.85
2023-04-26T12:29:53.871Z,11.05
2023-04-26T12:34:59.392Z,10.77
2023-04-26T12:40:07.326Z,10.50
2023-04-26T12:45:13.207Z,10.34
2023-04-26T12:50:18.939Z,10.36
2023-04-26T12:55:25.126Z,10.48
2023-04-26T13:00:30.702Z,10.65
2023-04-26T13:05:36.405Z,10.66
2023-04-26T13:10:41.892Z,10.87
2023-04-26T13:15:47.610Z,11.07
2023-04-26T13:20:53.277Z,11.06
2023-04-26T13:25:58.870Z,10.88
2023-04-26T13:31:04.566Z,10.83
2023-04-26T13:36:10.441Z,11.01
2023-04-26T13:41:16.604Z,11.02
2023-04-26T13:46:22.503Z,10.90
2023-04-26T13:51:30.764Z,10.79
2023-04-26T13:56:36.371Z,10.91
2023-04-26T14:01:42.017Z,10.91
2023-04-26T14:06:47.573Z,10.84
2023-04-26T14:12:00.821Z,10.66
2023-04-26T14:17:13.963Z,10.25
2023-04-26T14:22:19.832Z,10.02
2023-04-26T14:27:25.409Z,9.89
2023-04-26T14:32:31.300Z,10.02
2023-04-26T14:37:37.004Z,10.00
2023-04-26T14:42:48.805Z,9.87
2023-04-26T14:47:54.474Z,9.78
2023-04-26T14:53:00.112Z,9.87
2023-04-26T14:58:05.961Z,9.87
2023-04-26T15:03:12.590Z,9.86
2023-04-26T15:08:22.591Z,9.70
2023-04-26T15:13:28.123Z,9.56
2023-04-26T15:18:33.649Z,9.50
2023-04-26T15:23:39.006Z,9.53
2023-04-26T15:28:44.396Z,9.51
2023-04-26T15:33:49.748Z,9.56
2023-04-26T15:38:55.875Z,9.60
2023-04-26T15:44:01.977Z,9.55
2023-04-26T15:49:07.447Z,9.44
2023-04-26T15:54:12.851Z,9.33
2023-04-26T15:59:18.751Z,9.21
2023-04-26T16:04:25.047Z,9.07
2023-04-26T16:09:30.860Z,8.92
2023-04-26T16:14:36.332Z,8.85
2023-04-26T16:19:42.291Z,8.79
2023-04-26T16:24:47.835Z,8.71
2023-04-26T16:29:53.959Z,8.59
2023-04-26T16:34:59.410Z,8.45
2023-04-26T16:40:08.068Z,8.37
2023-04-26T16:45:16.283Z,8.32
2023-04-26T16:50:23.167Z,8.31
2023-04-26T16:55:28.620Z,8.26
2023-04-26T17:00:34.312Z,8.25
2023-04-26T17:05:40.972Z,8.23
2023-04-26T17:10:48.900Z,8.17
2023-04-26T17:15:55.566Z,8.11
2023-04-26T17:21:01.760Z,8.07
2023-04-26T17:26:07.148Z,8.03
2023-04-26T17:31:12.793Z,7.98
2023-04-26T17:36:19.684Z,7.89
2023-04-26T17:41:25.357Z,7.79
2023-04-26T17:46:30.809Z,7.66
2023-04-26T17:51:36.408Z,7.51
2023-04-26T17:56:43.543Z,7.39
2023-04-26T18:01:49.108Z,7.32
2023-04-26T18:06:54.803Z,7.28
2023-04-26T18:12:00.377Z,7.25
2023-04-26T18:17:06.998Z,7.24
2023-04-26T18:22:12.420Z,7.25
2023-04-26T18:27:18.103Z,7.25
2023-04-26T18:32:23.874Z,7.22
2023-04-26T18:37:29.266Z,7.21
2023-04-26T18:42:35.118Z,7.20
2023-04-26T18:47:41.597Z,7.17
2023-04-26T18:52:47.062Z,7.13
2023-04-26T18:57:52.817Z,7.07
2023-04-26T19:02:58.501Z,7.03
2023-04-26T19:08:04.121Z,6.97
2023-04-26T19:13:09.564Z,6.88
2023-04-26T19:18:15.323Z,6.81
2023-04-26T19:23:21.914Z,6.72
2023-04-26T19:28:30.760Z,6.62
2023-04-26T19:33:37.155Z,6.47
2023-04-26T19:38:42.669Z,6.30
2023-04-26T19:43:48.262Z,6.11
2023-04-26T19:48:53.586Z,5.92
2023-04-26T19:53:59.184Z,5.72
2023-04-26T19:59:04.897Z,5.52
2023-04-26T20:04:10.997Z,5.35
2023-04-26T20:09:17.331Z,5.22
2023-04-26T20:14:22.883Z,5.09
2023-04-26T20:19:28.700Z,4.97
2023-04-26T20:24:33.839Z,4.86
2023-04-26T20:29:39.227Z,4.77
2023-04-26T20:34:44.595Z,4.72
2023-04-26T20:39:50.078Z,4.66
2023-04-26T20:44:56.588Z,4.60
2023-04-26T20:50:02.434Z,4.53
2023-04-26T20:55:09.201Z,4.46
2023-04-26T21:00:16.103Z,4.37
2023-04-26T21:05:22.398Z,4.31
2023-04-26T21:10:27.966Z,4.23
2023-04-26T21:15:34.287Z,4.16
2023-04-26T21:20:39.992Z,4.11
2023-04-26T21:25:50.647Z,4.09
2023-04-26T21:31:08.268Z,4.03
2023-04-26T21:36:13.995Z,3.97
2023-04-26T21:41:19.914Z,3.92
2023-04-26T21:46:26.343Z,3.86
2023-04-26T21:51:32.086Z,3.83
2023-04-26T21:56:37.817Z,3.79
2023-04-26T22:01:43.552Z,3.76
2023-04-26T22:06:50.149Z,3.72
2023-04-26T22:11:56.315Z,3.68
2023-04-26T22:17:02.657Z,3.63
2023-04-26T22:22:08.725Z,3.54
2023-04-26T22:27:14.460Z,3.48
2023-04-26T22:32:21.441Z,3.40
2023-04-26T22:37:27.444Z,3.28
2023-04-26T22:42:33.094Z,3.17
2023-04-26T22:47:38.955Z,3.05
2023-04-26T22:52:44.712Z,2.93
2023-04-26T22:57:50.455Z,2.82
2023-04-26T23:02:56.193Z,2.75
2023-04-26T23:08:01.815Z,2.74
2023-04-26T23:13:07.741Z,2.77
2023-04-26T23:18:13.858Z,2.78
2023-04-26T23:23:19.583Z,2.73
2023-04-26T23:28:25.592Z,2.62
2023-04-26T23:33:31.169Z,2.47
2023-04-26T23:38:36.761Z,2.32
2023-04-26T23:43:42.664Z,2.15
2023-04-26T23:48:48.350Z,1.98
2023-04-26T23:53:54.042Z,1.80
2023-04-26T23:58:59.854Z,1.63
